Terminal Aerodrome Forecast
Issued by NWS Shreveport, LA

Current Version | Previous Version | Text Only | Print | Product List | Glossary On
Versions: 1 2 3 4 5 6 7 8 9 10 11 12 13 14 15
000
FTUS44 KSHV 021300 AAA
TAFLFK
TAF AMD
KLFK 021359Z 0214/0312 01005KT 1 1/2SM BR OVC002
     FM021700 02006KT 2SM BR OVC004
     FM030000 08004KT 2SM BR OVC004
     FM030500 12003KT 1SM BR OVC002=

USA.gov is the U.S. government's official web portal to all federal, state and local government web resources and services.